Time,TemperatureF,DewpointF,PressureIn,WindDirection,WindDirectionDegrees,WindSpeedMPH,WindSpeedGustMPH,Humidity,HourlyPrecipIn,Conditions,Clouds,dailyrainin,SoftwareType,DateUTC
2013-04-13 00:07:00,40.5,38.7,29.59,SW,219,0.0,2.0,93,0.00,,,0.00,meteobridge,2013-04-13 07:07:00,
2013-04-13 00:22:00,40.8,38.7,29.60,SSE,152,0.0,0.9,92,0.00,,,0.00,meteobridge,2013-04-13 07:22:00,
2013-04-13 00:37:00,41.2,38.5,29.60,SE,133,0.9,0.9,90,0.00,,,0.00,meteobridge,2013-04-13 07:37:00,
2013-04-13 00:52:00,41.2,38.5,29.59,WNW,289,0.0,0.0,90,0.00,,,0.00,meteobridge,2013-04-13 07:52:00,
2013-04-13 01:07:00,41.2,37.9,29.59,SSE,155,0.0,2.0,88,0.00,,,0.00,meteobridge,2013-04-13 08:07:00,
2013-04-13 01:22:00,41.0,37.8,29.58,WSW,238,0.0,2.0,88,0.00,,,0.00,meteobridge,2013-04-13 08:22:00,
2013-04-13 01:37:00,40.6,37.0,29.58,SSE,148,2.0,2.9,87,0.00,,,0.00,meteobridge,2013-04-13 08:37:00,
2013-04-13 01:52:00,40.5,36.7,29.57,South,190,0.0,4.0,86,0.00,,,0.00,meteobridge,2013-04-13 08:52:00,
2013-04-13 02:07:00,39.9,36.3,29.57,SSE,153,0.9,0.9,87,0.00,,,0.00,meteobridge,2013-04-13 09:07:00,
2013-04-13 02:23:00,39.4,36.1,29.56,SSE,149,0.0,2.0,88,0.00,,,0.00,meteobridge,2013-04-13 09:23:00,
2013-04-13 02:38:00,39.2,35.6,29.56,WNW,302,2.0,6.0,87,0.00,,,0.00,meteobridge,2013-04-13 09:38:00,
2013-04-13 02:53:00,38.8,35.6,29.56,SSW,202,0.0,6.0,88,0.00,,,0.00,meteobridge,2013-04-13 09:53:00,
2013-04-13 03:08:00,38.8,35.6,29.55,South,179,2.0,4.9,88,0.00,,,0.00,meteobridge,2013-04-13 10:08:00,
2013-04-13 03:23:00,38.8,36.0,29.56,SE,144,0.9,2.9,89,0.00,,,0.00,meteobridge,2013-04-13 10:23:00,
2013-04-13 03:38:00,38.8,36.0,29.56,West,272,0.9,4.0,89,0.00,,,0.00,meteobridge,2013-04-13 10:38:00,
2013-04-13 03:53:00,39.0,35.8,29.56,SSE,162,2.0,2.9,88,0.00,,,0.00,meteobridge,2013-04-13 10:53:00,
2013-04-13 04:08:00,38.8,35.6,29.56,WSW,243,0.0,2.0,88,0.00,,,0.00,meteobridge,2013-04-13 11:08:00,
2013-04-13 04:23:00,38.8,35.2,29.56,SSE,160,0.0,2.0,87,0.00,,,0.00,meteobridge,2013-04-13 11:23:00,
2013-04-13 04:38:00,39.2,35.6,29.56,WNW,291,2.0,6.9,87,0.00,,,0.00,meteobridge,2013-04-13 11:38:00,
2013-04-13 04:53:00,39.0,34.5,29.55,WNW,302,0.0,8.1,84,0.00,,,0.00,meteobridge,2013-04-13 11:53:00,
2013-04-13 05:08:00,38.5,33.1,29.55,WSW,256,0.9,2.9,81,0.00,,,0.00,meteobridge,2013-04-13 12:08:00,
2013-04-13 05:23:00,37.6,31.1,29.56,WSW,240,0.9,4.9,77,0.00,,,0.00,meteobridge,2013-04-13 12:23:00,
2013-04-13 05:38:00,37.0,29.5,29.56,SSW,201,0.9,4.9,74,0.00,,,0.00,meteobridge,2013-04-13 12:38:00,
2013-04-13 05:53:00,36.3,27.5,29.57,NNE,17,2.9,4.0,70,0.00,,,0.00,meteobridge,2013-04-13 12:53:00,
2013-04-13 06:08:00,36.1,26.6,29.57,North,349,0.0,2.0,68,0.00,,,0.00,meteobridge,2013-04-13 13:08:00,
2013-04-13 06:38:00,35.6,26.4,29.58,WNW,303,0.9,2.9,69,0.00,,,0.00,meteobridge,2013-04-13 13:38:00,
2013-04-13 06:53:00,35.6,26.1,29.59,South,191,6.0,8.1,68,0.00,,,0.00,meteobridge,2013-04-13 13:53:00,
2013-04-13 07:08:00,35.4,25.5,29.59,South,191,2.9,8.1,67,0.00,,,0.00,meteobridge,2013-04-13 14:08:00,
2013-04-13 07:24:00,35.2,25.7,29.60,SW,226,0.0,2.0,68,0.00,,,0.00,meteobridge,2013-04-13 14:24:00,
2013-04-13 07:38:00,34.9,25.3,29.62,WSW,250,2.9,4.9,68,0.00,,,0.00,meteobridge,2013-04-13 14:38:00,
2013-04-13 07:53:00,34.9,24.6,29.62,West,262,0.0,6.9,66,0.00,,,0.00,meteobridge,2013-04-13 14:53:00,
2013-04-13 08:08:00,35.4,24.1,29.63,WNW,303,0.0,4.0,63,0.00,,,0.00,meteobridge,2013-04-13 15:08:00,
2013-04-13 08:24:00,36.7,25.0,29.63,WNW,284,0.9,4.9,62,0.00,,,0.00,meteobridge,2013-04-13 15:24:00,
2013-04-13 08:39:00,37.9,24.4,29.63,SW,231,0.0,8.1,58,0.00,,,0.00,meteobridge,2013-04-13 15:39:00,
2013-04-13 09:09:00,38.5,25.9,29.64,WSW,239,0.9,2.9,60,0.00,,,0.00,meteobridge,2013-04-13 16:09:00,
2013-04-13 09:24:00,39.7,25.3,29.65,SSE,167,0.9,4.0,56,0.00,,,0.00,meteobridge,2013-04-13 16:24:00,
2013-04-13 09:39:00,39.7,24.4,29.65,SE,141,0.9,2.0,54,0.00,,,0.00,meteobridge,2013-04-13 16:39:00,
2013-04-13 09:54:00,39.9,25.0,29.65,NNW,336,0.0,4.0,55,0.00,,,0.00,meteobridge,2013-04-13 16:54:00,
2013-04-13 10:09:00,40.5,24.6,29.66,WNW,283,0.0,2.9,53,0.00,,,0.00,meteobridge,2013-04-13 17:09:00,
2013-04-13 10:24:00,41.0,25.7,29.66,NW,305,0.0,2.0,54,0.00,,,0.00,meteobridge,2013-04-13 17:24:00,
2013-04-13 10:39:00,41.4,25.5,29.66,West,262,0.0,2.9,53,0.00,,,0.00,meteobridge,2013-04-13 17:39:00,
2013-04-13 10:54:00,42.3,25.3,29.66,West,274,0.0,2.9,51,0.00,,,0.00,meteobridge,2013-04-13 17:54:00,
2013-04-13 11:09:00,42.6,22.8,29.67,West,278,2.0,6.0,45,0.00,,,0.00,meteobridge,2013-04-13 18:09:00,
2013-04-13 11:24:00,42.1,21.2,29.67,SE,143,0.0,4.9,43,0.00,,,0.00,meteobridge,2013-04-13 18:24:00,
2013-04-13 11:39:00,43.5,23.5,29.67,WNW,295,0.9,4.0,45,0.00,,,0.00,meteobridge,2013-04-13 18:39:00,
2013-04-13 11:54:00,43.5,21.9,29.67,NNE,27,4.9,6.0,42,0.00,,,0.00,meteobridge,2013-04-13 18:54:00,
2013-04-13 12:09:00,43.3,22.8,29.68,West,267,2.9,4.9,44,0.00,,,0.00,meteobridge,2013-04-13 19:09:00,
2013-04-13 12:24:00,43.7,24.8,29.68,WNW,285,0.0,4.0,47,0.00,,,0.00,meteobridge,2013-04-13 19:24:00,
2013-04-13 12:39:00,44.8,23.0,29.68,WNW,291,2.0,4.0,42,0.00,,,0.00,meteobridge,2013-04-13 19:39:00,
2013-04-13 12:54:00,44.8,21.9,29.69,WSW,250,2.9,6.9,40,0.00,,,0.00,meteobridge,2013-04-13 19:54:00,
2013-04-13 13:09:00,45.9,22.3,29.69,SSW,205,2.0,6.9,39,0.00,,,0.00,meteobridge,2013-04-13 20:09:00,
2013-04-13 13:24:00,44.8,22.5,29.70,WNW,295,2.0,4.0,41,0.00,,,0.00,meteobridge,2013-04-13 20:24:00,
2013-04-13 13:40:00,44.8,20.7,29.70,WSW,249,0.0,6.0,38,0.00,,,0.00,meteobridge,2013-04-13 20:40:00,
2013-04-13 13:55:00,44.8,20.1,29.70,SW,232,0.0,6.0,37,0.00,,,0.00,meteobridge,2013-04-13 20:55:00,
2013-04-13 14:10:00,45.1,19.8,29.71,NW,312,0.0,4.0,36,0.00,,,0.00,meteobridge,2013-04-13 21:10:00,
2013-04-13 14:25:00,45.9,19.0,29.71,SSW,205,2.0,2.9,34,0.00,,,0.00,meteobridge,2013-04-13 21:25:00,
2013-04-13 14:40:00,46.2,18.7,29.72,WNW,302,2.0,4.0,33,0.00,,,0.00,meteobridge,2013-04-13 21:40:00,
2013-04-13 14:55:00,46.0,18.5,29.71,West,265,2.0,2.9,33,0.00,,,0.00,meteobridge,2013-04-13 21:55:00,
2013-04-13 15:10:00,47.5,20.5,29.71,WNW,301,0.0,0.9,34,0.00,,,0.00,meteobridge,2013-04-13 22:10:00,
2013-04-13 15:25:00,48.0,20.3,29.71,East,83,0.0,0.9,33,0.00,,,0.00,meteobridge,2013-04-13 22:25:00,
2013-04-13 15:40:00,48.7,19.4,29.71,ENE,60,2.0,2.0,31,0.00,,,0.00,meteobridge,2013-04-13 22:40:00,
2013-04-13 15:55:00,48.6,20.8,29.71,East,84,0.0,0.9,33,0.00,,,0.00,meteobridge,2013-04-13 22:55:00,
2013-04-13 16:10:00,49.5,18.5,29.71,West,280,0.0,2.0,29,0.00,,,0.00,meteobridge,2013-04-13 23:10:00,
2013-04-13 16:25:00,50.2,19.2,29.71,WNW,295,0.9,4.0,29,0.00,,,0.00,meteobridge,2013-04-13 23:25:00,
2013-04-13 16:40:00,51.4,24.1,29.71,NW,306,0.9,4.0,34,0.00,,,0.00,meteobridge,2013-04-13 23:40:00,
2013-04-13 16:55:00,50.4,25.0,29.71,West,266,2.0,2.9,37,0.00,,,0.00,meteobridge,2013-04-13 23:55:00,
2013-04-13 17:10:00,48.9,23.2,29.72,West,267,2.9,4.0,36,0.00,,,0.00,meteobridge,2013-04-14 00:10:00,
2013-04-13 17:25:00,47.7,23.9,29.72,West,264,0.0,2.9,39,0.00,,,0.00,meteobridge,2013-04-14 00:25:00,
2013-04-13 17:40:00,46.8,23.2,29.72,ESE,110,0.0,4.9,39,0.00,,,0.00,meteobridge,2013-04-14 00:40:00,
2013-04-13 17:55:00,47.5,23.2,29.73,SSW,202,0.0,4.0,38,0.00,,,0.00,meteobridge,2013-04-14 00:55:00,
2013-04-13 18:10:00,46.9,22.6,29.73,WNW,299,0.9,2.0,38,0.00,,,0.00,meteobridge,2013-04-14 01:10:00,
2013-04-13 18:25:00,45.9,22.8,29.74,WNW,282,0.9,6.9,40,0.00,,,0.00,meteobridge,2013-04-14 01:25:00,
2013-04-13 18:40:00,44.8,23.0,29.74,NNE,27,0.0,2.9,42,0.00,,,0.00,meteobridge,2013-04-14 01:40:00,
2013-04-13 18:56:00,45.3,23.0,29.75,WSW,257,0.0,0.9,41,0.00,,,0.00,meteobridge,2013-04-14 01:56:00,
2013-04-13 19:11:00,44.8,24.8,29.75,SSE,161,0.0,0.0,45,0.00,,,0.00,meteobridge,2013-04-14 02:11:00,
2013-04-13 19:26:00,43.3,25.0,29.75,SSE,161,0.0,0.0,48,0.00,,,0.00,meteobridge,2013-04-14 02:26:00,
2013-04-13 19:41:00,41.5,24.8,29.75,SSE,161,0.0,0.0,51,0.00,,,0.00,meteobridge,2013-04-14 02:41:00,
2013-04-13 19:56:00,39.9,25.0,29.75,SSE,161,0.0,0.0,55,0.00,,,0.00,meteobridge,2013-04-14 02:56:00,
2013-04-13 20:11:00,39.0,25.9,29.76,SSE,161,0.0,0.0,59,0.00,,,0.00,meteobridge,2013-04-14 03:11:00,
2013-04-13 20:26:00,37.9,26.4,29.77,SSE,161,0.0,0.0,63,0.00,,,0.00,meteobridge,2013-04-14 03:26:00,
2013-04-13 20:42:00,37.2,26.6,29.78,SSE,161,0.0,0.0,65,0.00,,,0.00,meteobridge,2013-04-14 03:42:00,
2013-04-13 20:57:00,36.9,27.0,29.79,SSE,161,0.0,0.0,67,0.00,,,0.00,meteobridge,2013-04-14 03:57:00,
2013-04-13 21:12:00,36.5,26.2,29.79,SSE,161,0.0,0.0,66,0.00,,,0.00,meteobridge,2013-04-14 04:12:00,
2013-04-13 21:27:00,36.1,25.9,29.79,SSE,161,0.0,0.0,66,0.00,,,0.00,meteobridge,2013-04-14 04:27:00,
2013-04-13 21:42:00,36.0,25.7,29.79,SSE,161,0.0,0.0,66,0.00,,,0.00,meteobridge,2013-04-14 04:42:00,
2013-04-13 21:57:00,35.2,25.3,29.79,SSE,161,0.0,0.0,67,0.00,,,0.00,meteobridge,2013-04-14 04:57:00,
2013-04-13 22:13:00,35.2,25.3,29.79,SSE,161,0.0,0.0,67,0.00,,,0.00,meteobridge,2013-04-14 05:13:00,
2013-04-13 22:28:00,35.2,24.3,29.80,SE,141,0.0,0.0,64,0.00,,,0.00,meteobridge,2013-04-14 05:28:00,
2013-04-13 22:44:00,35.2,24.3,29.80,SE,141,0.0,0.0,64,0.00,,,0.00,meteobridge,2013-04-14 05:44:00,
2013-04-13 22:59:00,35.1,24.4,29.80,SE,141,0.0,0.0,65,0.00,,,0.00,meteobridge,2013-04-14 05:59:00,
2013-04-13 23:14:00,35.2,24.6,29.81,SE,141,0.0,0.0,65,0.00,,,0.00,meteobridge,2013-04-14 06:14:00,
2013-04-13 23:29:00,35.4,24.4,29.82,SE,146,0.0,0.0,64,0.00,,,0.00,meteobridge,2013-04-14 06:29:00,
2013-04-13 23:44:00,35.1,24.4,29.82,SE,146,0.0,0.0,65,0.00,,,0.00,meteobridge,2013-04-14 06:44:00,